sensor_id;sensor_type;location;lat;lon;timestamp;P1;durP1;ratioP1;P2;durP2;ratioP2
14472;SDS011;7322;50.872;4.386;2022-07-30T00:02:03;12.37;;;6.23;;
14472;SDS011;7322;50.872;4.386;2022-07-30T00:04:30;12.90;;;5.90;;
14472;SDS011;7322;50.872;4.386;2022-07-30T00:06:57;9.40;;;5.77;;
14472;SDS011;7322;50.872;4.386;2022-07-30T00:09:25;11.80;;;6.47;;
14472;SDS011;7322;50.872;4.386;2022-07-30T00:11:52;10.70;;;6.60;;
14472;SDS011;7322;50.872;4.386;2022-07-30T00:14:19;12.70;;;6.57;;
14472;SDS011;7322;50.872;4.386;2022-07-30T00:16:46;11.23;;;5.53;;
14472;SDS011;7322;50.872;4.386;2022-07-30T00:19:13;11.43;;;6.77;;
14472;SDS011;7322;50.872;4.386;2022-07-30T00:21:40;9.83;;;6.20;;
14472;SDS011;7322;50.872;4.386;2022-07-30T00:24:07;10.07;;;6.83;;
14472;SDS011;7322;50.872;4.386;2022-07-30T00:26:35;15.10;;;7.40;;
14472;SDS011;7322;50.872;4.386;2022-07-30T00:29:02;15.37;;;7.30;;
14472;SDS011;7322;50.872;4.386;2022-07-30T00:31:30;10.50;;;7.20;;
14472;SDS011;7322;50.872;4.386;2022-07-30T00:33:57;16.37;;;8.17;;
14472;SDS011;7322;50.872;4.386;2022-07-30T00:36:24;12.73;;;8.13;;
14472;SDS011;7322;50.872;4.386;2022-07-30T00:38:51;13.63;;;7.17;;
14472;SDS011;7322;50.872;4.386;2022-07-30T00:41:18;15.50;;;7.03;;
14472;SDS011;7322;50.872;4.386;2022-07-30T00:43:46;14.17;;;7.73;;
14472;SDS011;7322;50.872;4.386;2022-07-30T00:46:13;16.87;;;7.27;;
14472;SDS011;7322;50.872;4.386;2022-07-30T00:48:40;12.33;;;7.93;;
14472;SDS011;7322;50.872;4.386;2022-07-30T00:51:07;14.97;;;8.27;;
14472;SDS011;7322;50.872;4.386;2022-07-30T00:53:35;14.30;;;8.67;;
14472;SDS011;7322;50.872;4.386;2022-07-30T00:56:02;12.57;;;8.57;;
14472;SDS011;7322;50.872;4.386;2022-07-30T00:58:30;15.70;;;8.77;;
14472;SDS011;7322;50.872;4.386;2022-07-30T01:00:58;16.63;;;8.67;;
14472;SDS011;7322;50.872;4.386;2022-07-30T01:03:25;17.47;;;9.13;;
14472;SDS011;7322;50.872;4.386;2022-07-30T01:05:52;20.03;;;10.07;;
14472;SDS011;7322;50.872;4.386;2022-07-30T01:08:19;16.30;;;9.30;;
14472;SDS011;7322;50.872;4.386;2022-07-30T01:10:46;14.23;;;9.40;;
14472;SDS011;7322;50.872;4.386;2022-07-30T01:13:13;19.17;;;9.93;;
14472;SDS011;7322;50.872;4.386;2022-07-30T01:15:40;14.87;;;9.23;;
14472;SDS011;7322;50.872;4.386;2022-07-30T01:18:09;15.90;;;9.50;;
14472;SDS011;7322;50.872;4.386;2022-07-30T01:20:39;14.90;;;10.10;;
14472;SDS011;7322;50.872;4.386;2022-07-30T01:23:11;13.00;;;9.43;;
14472;SDS011;7322;50.872;4.386;2022-07-30T01:25:51;15.53;;;10.23;;
14472;SDS011;7322;50.872;4.386;2022-07-30T01:28:21;15.80;;;10.40;;
14472;SDS011;7322;50.872;4.386;2022-07-30T01:30:51;14.13;;;9.77;;
14472;SDS011;7322;50.872;4.386;2022-07-30T01:33:20;17.13;;;10.87;;
14472;SDS011;7322;50.872;4.386;2022-07-30T01:35:49;17.37;;;11.30;;
14472;SDS011;7322;50.872;4.386;2022-07-30T01:38:18;17.20;;;10.67;;
14472;SDS011;7322;50.872;4.386;2022-07-30T01:40:47;17.37;;;10.83;;
14472;SDS011;7322;50.872;4.386;2022-07-30T01:43:17;16.10;;;11.20;;
14472;SDS011;7322;50.872;4.386;2022-07-30T01:45:47;16.43;;;10.87;;
14472;SDS011;7322;50.872;4.386;2022-07-30T01:48:15;14.40;;;10.60;;
14472;SDS011;7322;50.872;4.386;2022-07-30T01:50:45;15.20;;;9.93;;
14472;SDS011;7322;50.872;4.386;2022-07-30T01:53:14;14.13;;;10.73;;
14472;SDS011;7322;50.872;4.386;2022-07-30T01:55:44;15.30;;;11.13;;
14472;SDS011;7322;50.872;4.386;2022-07-30T01:58:15;16.77;;;10.73;;
14472;SDS011;7322;50.872;4.386;2022-07-30T02:00:44;16.20;;;10.73;;
14472;SDS011;7322;50.872;4.386;2022-07-30T02:03:13;17.93;;;10.90;;
14472;SDS011;7322;50.872;4.386;2022-07-30T02:05:41;16.40;;;10.50;;
14472;SDS011;7322;50.872;4.386;2022-07-30T02:08:15;17.17;;;10.67;;
14472;SDS011;7322;50.872;4.386;2022-07-30T02:10:48;16.83;;;10.27;;
14472;SDS011;7322;50.872;4.386;2022-07-30T02:13:20;16.90;;;10.57;;
14472;SDS011;7322;50.872;4.386;2022-07-30T02:15:53;15.50;;;10.70;;
14472;SDS011;7322;50.872;4.386;2022-07-30T02:18:24;15.30;;;10.10;;
14472;SDS011;7322;50.872;4.386;2022-07-30T02:20:57;14.77;;;10.03;;
14472;SDS011;7322;50.872;4.386;2022-07-30T02:23:27;16.63;;;10.80;;
14472;SDS011;7322;50.872;4.386;2022-07-30T02:25:56;16.13;;;11.43;;
14472;SDS011;7322;50.872;4.386;2022-07-30T02:28:26;14.87;;;10.63;;
14472;SDS011;7322;50.872;4.386;2022-07-30T02:30:56;17.57;;;10.67;;
14472;SDS011;7322;50.872;4.386;2022-07-30T02:33:26;16.50;;;10.27;;
14472;SDS011;7322;50.872;4.386;2022-07-30T02:35:58;13.10;;;10.60;;
14472;SDS011;7322;50.872;4.386;2022-07-30T02:38:27;17.23;;;9.77;;
14472;SDS011;7322;50.872;4.386;2022-07-30T02:40:56;18.07;;;10.77;;
14472;SDS011;7322;50.872;4.386;2022-07-30T02:43:28;20.27;;;10.97;;
14472;SDS011;7322;50.872;4.386;2022-07-30T02:45:55;19.57;;;10.80;;
14472;SDS011;7322;50.872;4.386;2022-07-30T02:48:24;15.17;;;11.07;;
14472;SDS011;7322;50.872;4.386;2022-07-30T02:50:52;17.70;;;10.77;;
14472;SDS011;7322;50.872;4.386;2022-07-30T02:53:22;16.53;;;10.07;;
14472;SDS011;7322;50.872;4.386;2022-07-30T02:55:51;17.53;;;11.70;;
14472;SDS011;7322;50.872;4.386;2022-07-30T02:58:22;14.67;;;11.27;;
14472;SDS011;7322;50.872;4.386;2022-07-30T03:00:52;15.37;;;11.47;;
14472;SDS011;7322;50.872;4.386;2022-07-30T03:03:20;17.33;;;11.67;;
14472;SDS011;7322;50.872;4.386;2022-07-30T03:05:53;16.87;;;11.83;;
14472;SDS011;7322;50.872;4.386;2022-07-30T03:08:21;16.17;;;12.37;;
14472;SDS011;7322;50.872;4.386;2022-07-30T03:10:50;17.40;;;12.80;;
14472;SDS011;7322;50.872;4.386;2022-07-30T03:13:18;19.93;;;12.73;;
14472;SDS011;7322;50.872;4.386;2022-07-30T03:15:46;15.63;;;11.83;;
14472;SDS011;7322;50.872;4.386;2022-07-30T03:18:18;15.47;;;12.93;;
14472;SDS011;7322;50.872;4.386;2022-07-30T03:20:47;17.77;;;12.93;;
14472;SDS011;7322;50.872;4.386;2022-07-30T03:23:16;21.13;;;12.97;;
14472;SDS011;7322;50.872;4.386;2022-07-30T03:25:46;16.90;;;13.17;;
14472;SDS011;7322;50.872;4.386;2022-07-30T03:28:17;16.93;;;12.97;;
14472;SDS011;7322;50.872;4.386;2022-07-30T03:30:45;18.37;;;12.13;;
14472;SDS011;7322;50.872;4.386;2022-07-30T03:33:12;17.17;;;13.00;;
14472;SDS011;7322;50.872;4.386;2022-07-30T03:35:41;18.87;;;13.13;;
14472;SDS011;7322;50.872;4.386;2022-07-30T03:38:09;17.23;;;12.83;;
14472;SDS011;7322;50.872;4.386;2022-07-30T03:40:38;17.77;;;13.00;;
14472;SDS011;7322;50.872;4.386;2022-07-30T03:43:05;22.23;;;13.13;;
14472;SDS011;7322;50.872;4.386;2022-07-30T03:45:33;18.77;;;13.10;;
14472;SDS011;7322;50.872;4.386;2022-07-30T03:48:02;19.63;;;13.53;;
14472;SDS011;7322;50.872;4.386;2022-07-30T03:50:30;18.93;;;13.90;;
14472;SDS011;7322;50.872;4.386;2022-07-30T03:52:58;17.70;;;12.80;;
14472;SDS011;7322;50.872;4.386;2022-07-30T03:55:26;21.07;;;14.23;;
14472;SDS011;7322;50.872;4.386;2022-07-30T03:57:53;22.50;;;14.77;;
14472;SDS011;7322;50.872;4.386;2022-07-30T04:00:20;20.10;;;15.13;;
14472;SDS011;7322;50.872;4.386;2022-07-30T04:02:47;20.57;;;15.33;;
14472;SDS011;7322;50.872;4.386;2022-07-30T04:05:14;22.77;;;15.57;;
14472;SDS011;7322;50.872;4.386;2022-07-30T04:07:42;21.40;;;15.33;;
14472;SDS011;7322;50.872;4.386;2022-07-30T04:10:10;20.60;;;15.43;;
14472;SDS011;7322;50.872;4.386;2022-07-30T04:12:37;24.60;;;17.43;;
14472;SDS011;7322;50.872;4.386;2022-07-30T04:15:04;24.00;;;17.57;;
14472;SDS011;7322;50.872;4.386;2022-07-30T04:17:34;22.50;;;16.40;;
14472;SDS011;7322;50.872;4.386;2022-07-30T04:20:05;21.90;;;16.90;;
14472;SDS011;7322;50.872;4.386;2022-07-30T04:22:35;21.77;;;18.73;;
14472;SDS011;7322;50.872;4.386;2022-07-30T04:25:04;30.30;;;18.53;;
14472;SDS011;7322;50.872;4.386;2022-07-30T04:27:33;28.63;;;19.17;;
14472;SDS011;7322;50.872;4.386;2022-07-30T04:30:02;29.57;;;19.03;;
14472;SDS011;7322;50.872;4.386;2022-07-30T04:32:30;25.43;;;18.80;;
14472;SDS011;7322;50.872;4.386;2022-07-30T04:34:58;25.63;;;18.63;;
14472;SDS011;7322;50.872;4.386;2022-07-30T04:37:26;25.67;;;19.17;;
14472;SDS011;7322;50.872;4.386;2022-07-30T04:39:53;22.60;;;18.77;;
14472;SDS011;7322;50.872;4.386;2022-07-30T04:42:22;29.23;;;20.33;;
14472;SDS011;7322;50.872;4.386;2022-07-30T04:44:50;23.53;;;19.77;;
14472;SDS011;7322;50.872;4.386;2022-07-30T04:47:19;24.10;;;19.10;;
14472;SDS011;7322;50.872;4.386;2022-07-30T04:49:47;28.53;;;20.60;;
14472;SDS011;7322;50.872;4.386;2022-07-30T04:52:16;25.40;;;19.23;;
14472;SDS011;7322;50.872;4.386;2022-07-30T04:54:45;26.00;;;19.93;;
14472;SDS011;7322;50.872;4.386;2022-07-30T04:57:14;26.47;;;19.47;;
14472;SDS011;7322;50.872;4.386;2022-07-30T04:59:43;26.13;;;18.87;;
14472;SDS011;7322;50.872;4.386;2022-07-30T05:02:11;24.63;;;19.50;;
14472;SDS011;7322;50.872;4.386;2022-07-30T05:04:41;21.67;;;19.33;;
14472;SDS011;7322;50.872;4.386;2022-07-30T05:07:09;21.03;;;18.83;;
14472;SDS011;7322;50.872;4.386;2022-07-30T05:09:38;21.57;;;18.60;;
14472;SDS011;7322;50.872;4.386;2022-07-30T05:12:06;27.83;;;18.33;;
14472;SDS011;7322;50.872;4.386;2022-07-30T05:14:33;23.83;;;17.77;;
14472;SDS011;7322;50.872;4.386;2022-07-30T05:17:00;22.20;;;17.70;;
14472;SDS011;7322;50.872;4.386;2022-07-30T05:19:29;24.70;;;17.80;;
14472;SDS011;7322;50.872;4.386;2022-07-30T05:21:56;22.10;;;16.80;;
14472;SDS011;7322;50.872;4.386;2022-07-30T05:24:23;21.17;;;17.03;;
14472;SDS011;7322;50.872;4.386;2022-07-30T05:26:51;22.57;;;16.60;;
14472;SDS011;7322;50.872;4.386;2022-07-30T05:29:18;20.73;;;15.17;;
14472;SDS011;7322;50.872;4.386;2022-07-30T05:31:45;19.30;;;16.30;;
14472;SDS011;7322;50.872;4.386;2022-07-30T05:34:12;20.03;;;14.93;;
14472;SDS011;7322;50.872;4.386;2022-07-30T05:36:41;18.07;;;14.17;;
14472;SDS011;7322;50.872;4.386;2022-07-30T05:39:08;17.67;;;13.67;;
14472;SDS011;7322;50.872;4.386;2022-07-30T05:41:35;18.73;;;14.00;;
14472;SDS011;7322;50.872;4.386;2022-07-30T05:44:02;16.83;;;13.07;;
14472;SDS011;7322;50.872;4.386;2022-07-30T05:46:29;20.87;;;13.87;;
14472;SDS011;7322;50.872;4.386;2022-07-30T05:48:56;19.23;;;11.87;;
14472;SDS011;7322;50.872;4.386;2022-07-30T05:51:23;21.47;;;12.30;;
14472;SDS011;7322;50.872;4.386;2022-07-30T05:53:52;18.13;;;11.30;;
14472;SDS011;7322;50.872;4.386;2022-07-30T05:56:19;18.43;;;11.70;;
14472;SDS011;7322;50.872;4.386;2022-07-30T05:58:46;18.10;;;11.53;;
14472;SDS011;7322;50.872;4.386;2022-07-30T06:01:12;18.13;;;11.60;;
14472;SDS011;7322;50.872;4.386;2022-07-30T06:03:39;16.27;;;12.10;;
14472;SDS011;7322;50.872;4.386;2022-07-30T06:06:06;16.80;;;11.77;;
14472;SDS011;7322;50.872;4.386;2022-07-30T06:08:33;17.73;;;11.47;;
14472;SDS011;7322;50.872;4.386;2022-07-30T06:11:02;18.70;;;9.97;;
14472;SDS011;7322;50.872;4.386;2022-07-30T06:13:29;12.83;;;8.90;;
14472;SDS011;7322;50.872;4.386;2022-07-30T06:15:56;12.50;;;8.70;;
14472;SDS011;7322;50.872;4.386;2022-07-30T06:18:23;11.68;;;8.35;;
14472;SDS011;7322;50.872;4.386;2022-07-30T06:20:50;11.90;;;8.13;;
14472;SDS011;7322;50.872;4.386;2022-07-30T06:23:18;9.35;;;7.32;;
14472;SDS011;7322;50.872;4.386;2022-07-30T06:25:45;12.57;;;7.45;;
14472;SDS011;7322;50.872;4.386;2022-07-30T06:28:17;14.15;;;7.05;;
14472;SDS011;7322;50.872;4.386;2022-07-30T06:30:44;10.07;;;6.13;;
14472;SDS011;7322;50.872;4.386;2022-07-30T06:33:12;7.10;;;4.63;;
14472;SDS011;7322;50.872;4.386;2022-07-30T06:35:39;7.15;;;4.07;;
14472;SDS011;7322;50.872;4.386;2022-07-30T06:38:06;6.18;;;3.25;;
14472;SDS011;7322;50.872;4.386;2022-07-30T06:40:33;7.03;;;2.83;;
14472;SDS011;7322;50.872;4.386;2022-07-30T06:43:00;8.00;;;3.60;;
14472;SDS011;7322;50.872;4.386;2022-07-30T06:45:29;6.93;;;3.20;;
14472;SDS011;7322;50.872;4.386;2022-07-30T06:48:02;5.75;;;3.70;;
14472;SDS011;7322;50.872;4.386;2022-07-30T06:50:29;6.00;;;3.55;;
14472;SDS011;7322;50.872;4.386;2022-07-30T06:52:56;7.15;;;3.70;;
14472;SDS011;7322;50.872;4.386;2022-07-30T06:55:23;6.53;;;3.40;;
14472;SDS011;7322;50.872;4.386;2022-07-30T06:57:50;6.30;;;3.53;;
14472;SDS011;7322;50.872;4.386;2022-07-30T07:00:17;4.78;;;2.92;;
14472;SDS011;7322;50.872;4.386;2022-07-30T07:02:46;5.03;;;3.55;;
14472;SDS011;7322;50.872;4.386;2022-07-30T07:05:13;6.18;;;2.97;;
14472;SDS011;7322;50.872;4.386;2022-07-30T07:07:40;4.60;;;3.00;;
14472;SDS011;7322;50.872;4.386;2022-07-30T07:10:08;4.93;;;2.97;;
14472;SDS011;7322;50.872;4.386;2022-07-30T07:12:35;9.05;;;3.40;;
14472;SDS011;7322;50.872;4.386;2022-07-30T07:15:14;4.55;;;2.97;;
14472;SDS011;7322;50.872;4.386;2022-07-30T07:20:40;6.45;;;3.25;;
14472;SDS011;7322;50.872;4.386;2022-07-30T07:23:10;5.00;;;2.90;;
14472;SDS011;7322;50.872;4.386;2022-07-30T07:25:37;8.02;;;3.97;;
14472;SDS011;7322;50.872;4.386;2022-07-30T07:28:05;8.90;;;3.92;;
14472;SDS011;7322;50.872;4.386;2022-07-30T07:30:34;5.65;;;3.75;;
14472;SDS011;7322;50.872;4.386;2022-07-30T07:33:01;5.55;;;3.25;;
14472;SDS011;7322;50.872;4.386;2022-07-30T07:35:28;5.15;;;3.65;;
14472;SDS011;7322;50.872;4.386;2022-07-30T07:37:56;4.90;;;2.97;;
14472;SDS011;7322;50.872;4.386;2022-07-30T07:40:23;5.97;;;2.42;;
14472;SDS011;7322;50.872;4.386;2022-07-30T07:42:50;3.35;;;2.13;;
14472;SDS011;7322;50.872;4.386;2022-07-30T07:45:17;8.15;;;3.63;;
14472;SDS011;7322;50.872;4.386;2022-07-30T07:47:44;6.30;;;2.50;;
14472;SDS011;7322;50.872;4.386;2022-07-30T07:50:13;7.70;;;3.20;;
14472;SDS011;7322;50.872;4.386;2022-07-30T07:52:41;3.50;;;2.50;;
14472;SDS011;7322;50.872;4.386;2022-07-30T07:55:10;4.63;;;2.30;;
14472;SDS011;7322;50.872;4.386;2022-07-30T07:57:37;5.53;;;2.25;;
14472;SDS011;7322;50.872;4.386;2022-07-30T08:00:09;5.57;;;2.20;;
14472;SDS011;7322;50.872;4.386;2022-07-30T08:02:43;3.13;;;2.00;;
14472;SDS011;7322;50.872;4.386;2022-07-30T08:05:11;4.32;;;2.40;;
14472;SDS011;7322;50.872;4.386;2022-07-30T08:07:41;5.65;;;2.03;;
14472;SDS011;7322;50.872;4.386;2022-07-30T08:10:11;3.13;;;2.00;;
14472;SDS011;7322;50.872;4.386;2022-07-30T08:12:41;5.25;;;2.45;;
14472;SDS011;7322;50.872;4.386;2022-07-30T08:15:08;5.75;;;1.67;;
14472;SDS011;7322;50.872;4.386;2022-07-30T08:17:38;5.43;;;1.88;;
14472;SDS011;7322;50.872;4.386;2022-07-30T08:20:06;2.75;;;1.80;;
14472;SDS011;7322;50.872;4.386;2022-07-30T08:22:34;6.03;;;2.20;;
14472;SDS011;7322;50.872;4.386;2022-07-30T08:25:02;3.80;;;2.00;;
14472;SDS011;7322;50.872;4.386;2022-07-30T08:27:31;5.28;;;2.30;;
14472;SDS011;7322;50.872;4.386;2022-07-30T08:30:01;4.15;;;2.05;;
14472;SDS011;7322;50.872;4.386;2022-07-30T08:32:29;3.50;;;2.10;;
14472;SDS011;7322;50.872;4.386;2022-07-30T08:34:56;4.80;;;2.00;;
14472;SDS011;7322;50.872;4.386;2022-07-30T08:37:24;4.28;;;2.28;;
14472;SDS011;7322;50.872;4.386;2022-07-30T08:39:56;3.25;;;1.90;;
14472;SDS011;7322;50.872;4.386;2022-07-30T08:42:23;6.38;;;2.50;;
14472;SDS011;7322;50.872;4.386;2022-07-30T08:44:54;3.75;;;2.25;;
14472;SDS011;7322;50.872;4.386;2022-07-30T08:47:22;5.15;;;2.13;;
14472;SDS011;7322;50.872;4.386;2022-07-30T08:49:53;3.30;;;1.90;;
14472;SDS011;7322;50.872;4.386;2022-07-30T08:52:31;6.13;;;1.90;;
14472;SDS011;7322;50.872;4.386;2022-07-30T08:57:43;4.60;;;1.75;;
14472;SDS011;7322;50.872;4.386;2022-07-30T09:00:13;3.58;;;1.90;;
14472;SDS011;7322;50.872;4.386;2022-07-30T09:02:41;5.22;;;1.90;;
14472;SDS011;7322;50.872;4.386;2022-07-30T09:05:09;4.60;;;2.05;;
14472;SDS011;7322;50.872;4.386;2022-07-30T09:07:36;3.58;;;1.70;;
14472;SDS011;7322;50.872;4.386;2022-07-30T09:10:04;4.65;;;2.00;;
14472;SDS011;7322;50.872;4.386;2022-07-30T09:12:33;3.67;;;1.45;;
14472;SDS011;7322;50.872;4.386;2022-07-30T09:15:01;3.88;;;1.95;;
14472;SDS011;7322;50.872;4.386;2022-07-30T09:17:45;3.85;;;2.10;;
14472;SDS011;7322;50.872;4.386;2022-07-30T09:20:13;4.60;;;1.80;;
14472;SDS011;7322;50.872;4.386;2022-07-30T09:22:41;3.92;;;1.70;;
14472;SDS011;7322;50.872;4.386;2022-07-30T09:25:10;3.22;;;2.08;;
14472;SDS011;7322;50.872;4.386;2022-07-30T09:27:44;2.85;;;1.60;;
14472;SDS011;7322;50.872;4.386;2022-07-30T09:30:12;5.25;;;2.10;;
14472;SDS011;7322;50.872;4.386;2022-07-30T09:32:48;5.93;;;2.15;;
14472;SDS011;7322;50.872;4.386;2022-07-30T09:35:15;2.83;;;1.80;;
14472;SDS011;7322;50.872;4.386;2022-07-30T09:37:43;2.53;;;1.58;;
14472;SDS011;7322;50.872;4.386;2022-07-30T09:40:11;4.82;;;2.10;;
14472;SDS011;7322;50.872;4.386;2022-07-30T09:42:39;4.32;;;1.60;;
14472;SDS011;7322;50.872;4.386;2022-07-30T09:45:23;4.45;;;1.65;;
14472;SDS011;7322;50.872;4.386;2022-07-30T09:48:04;4.28;;;1.92;;
14472;SDS011;7322;50.872;4.386;2022-07-30T09:50:46;2.75;;;1.95;;
14472;SDS011;7322;50.872;4.386;2022-07-30T09:53:14;3.80;;;1.90;;
14472;SDS011;7322;50.872;4.386;2022-07-30T09:55:41;5.07;;;1.90;;
14472;SDS011;7322;50.872;4.386;2022-07-30T09:58:09;3.72;;;2.00;;
14472;SDS011;7322;50.872;4.386;2022-07-30T10:00:37;4.50;;;2.13;;
14472;SDS011;7322;50.872;4.386;2022-07-30T10:03:15;6.90;;;2.60;;
14472;SDS011;7322;50.872;4.386;2022-07-30T10:05:49;5.45;;;2.10;;
14472;SDS011;7322;50.872;4.386;2022-07-30T10:08:17;13.15;;;2.30;;
14472;SDS011;7322;50.872;4.386;2022-07-30T10:10:45;3.20;;;2.00;;
14472;SDS011;7322;50.872;4.386;2022-07-30T10:13:14;4.97;;;2.20;;
14472;SDS011;7322;50.872;4.386;2022-07-30T10:15:43;5.38;;;2.03;;
14472;SDS011;7322;50.872;4.386;2022-07-30T10:18:11;4.70;;;2.03;;
14472;SDS011;7322;50.872;4.386;2022-07-30T10:20:40;6.10;;;2.53;;
14472;SDS011;7322;50.872;4.386;2022-07-30T10:23:08;6.13;;;2.30;;
14472;SDS011;7322;50.872;4.386;2022-07-30T10:25:36;7.45;;;2.25;;
14472;SDS011;7322;50.872;4.386;2022-07-30T10:28:03;4.15;;;2.10;;
14472;SDS011;7322;50.872;4.386;2022-07-30T10:30:32;3.60;;;2.00;;
14472;SDS011;7322;50.872;4.386;2022-07-30T10:32:59;4.55;;;2.40;;
14472;SDS011;7322;50.872;4.386;2022-07-30T10:38:14;6.85;;;2.10;;
14472;SDS011;7322;50.872;4.386;2022-07-30T10:41:02;4.25;;;2.20;;
14472;SDS011;7322;50.872;4.386;2022-07-30T10:46:42;4.63;;;2.08;;
14472;SDS011;7322;50.872;4.386;2022-07-30T10:55:29;4.30;;;1.80;;
14472;SDS011;7322;50.872;4.386;2022-07-30T10:58:01;5.32;;;1.92;;
14472;SDS011;7322;50.872;4.386;2022-07-30T11:00:30;3.88;;;1.70;;
14472;SDS011;7322;50.872;4.386;2022-07-30T11:03:14;4.03;;;2.03;;
14472;SDS011;7322;50.872;4.386;2022-07-30T11:05:44;4.68;;;2.10;;
14472;SDS011;7322;50.872;4.386;2022-07-30T11:11:05;3.60;;;1.80;;
14472;SDS011;7322;50.872;4.386;2022-07-30T11:14:10;3.85;;;1.92;;
14472;SDS011;7322;50.872;4.386;2022-07-30T11:19:24;5.22;;;1.80;;
14472;SDS011;7322;50.872;4.386;2022-07-30T11:24:51;6.05;;;2.13;;
14472;SDS011;7322;50.872;4.386;2022-07-30T11:27:36;4.35;;;2.05;;
14472;SDS011;7322;50.872;4.386;2022-07-30T11:30:05;5.32;;;2.20;;
14472;SDS011;7322;50.872;4.386;2022-07-30T11:41:26;4.55;;;2.05;;
14472;SDS011;7322;50.872;4.386;2022-07-30T11:46:50;4.60;;;2.20;;
14472;SDS011;7322;50.872;4.386;2022-07-30T11:49:17;3.45;;;2.00;;
14472;SDS011;7322;50.872;4.386;2022-07-30T11:51:46;6.82;;;2.35;;
14472;SDS011;7322;50.872;4.386;2022-07-30T11:54:15;4.55;;;2.35;;
14472;SDS011;7322;50.872;4.386;2022-07-30T11:56:50;5.22;;;2.30;;
14472;SDS011;7322;50.872;4.386;2022-07-30T11:59:19;5.50;;;2.15;;
14472;SDS011;7322;50.872;4.386;2022-07-30T12:01:49;4.78;;;2.05;;
14472;SDS011;7322;50.872;4.386;2022-07-30T12:04:23;4.72;;;2.33;;
14472;SDS011;7322;50.872;4.386;2022-07-30T12:06:50;5.63;;;2.17;;
14472;SDS011;7322;50.872;4.386;2022-07-30T12:12:28;4.03;;;2.20;;
14472;SDS011;7322;50.872;4.386;2022-07-30T12:14:54;4.82;;;2.60;;
14472;SDS011;7322;50.872;4.386;2022-07-30T12:20:13;6.47;;;2.40;;
14472;SDS011;7322;50.872;4.386;2022-07-30T12:22:42;5.32;;;2.05;;
14472;SDS011;7322;50.872;4.386;2022-07-30T12:25:10;5.32;;;2.25;;
14472;SDS011;7322;50.872;4.386;2022-07-30T12:27:39;5.03;;;2.03;;
14472;SDS011;7322;50.872;4.386;2022-07-30T12:30:10;7.32;;;2.40;;
14472;SDS011;7322;50.872;4.386;2022-07-30T12:32:38;5.25;;;2.30;;
14472;SDS011;7322;50.872;4.386;2022-07-30T12:35:06;3.63;;;2.05;;
14472;SDS011;7322;50.872;4.386;2022-07-30T12:37:34;5.68;;;1.75;;
14472;SDS011;7322;50.872;4.386;2022-07-30T12:40:09;3.90;;;2.20;;
14472;SDS011;7322;50.872;4.386;2022-07-30T12:42:48;6.20;;;2.42;;
14472;SDS011;7322;50.872;4.386;2022-07-30T12:45:28;7.15;;;2.00;;
14472;SDS011;7322;50.872;4.386;2022-07-30T12:47:56;4.60;;;1.73;;
14472;SDS011;7322;50.872;4.386;2022-07-30T12:50:24;5.07;;;2.38;;
14472;SDS011;7322;50.872;4.386;2022-07-30T12:52:52;4.43;;;2.00;;
14472;SDS011;7322;50.872;4.386;2022-07-30T12:55:27;5.55;;;1.95;;
14472;SDS011;7322;50.872;4.386;2022-07-30T12:57:59;4.55;;;2.00;;
14472;SDS011;7322;50.872;4.386;2022-07-30T13:00:28;4.68;;;1.73;;
14472;SDS011;7322;50.872;4.386;2022-07-30T13:02:56;4.47;;;1.60;;
14472;SDS011;7322;50.872;4.386;2022-07-30T13:08:13;5.93;;;2.00;;
14472;SDS011;7322;50.872;4.386;2022-07-30T13:10:52;7.15;;;1.95;;
14472;SDS011;7322;50.872;4.386;2022-07-30T13:13:30;4.03;;;1.80;;
14472;SDS011;7322;50.872;4.386;2022-07-30T13:19:09;4.00;;;1.70;;
14472;SDS011;7322;50.872;4.386;2022-07-30T13:24:47;2.90;;;1.55;;
14472;SDS011;7322;50.872;4.386;2022-07-30T13:27:14;4.10;;;1.90;;
14472;SDS011;7322;50.872;4.386;2022-07-30T13:29:43;2.85;;;1.60;;
14472;SDS011;7322;50.872;4.386;2022-07-30T13:32:10;5.00;;;1.67;;
14472;SDS011;7322;50.872;4.386;2022-07-30T13:34:37;4.55;;;1.65;;
14472;SDS011;7322;50.872;4.386;2022-07-30T13:37:06;5.93;;;1.70;;
14472;SDS011;7322;50.872;4.386;2022-07-30T13:39:33;5.32;;;1.88;;
14472;SDS011;7322;50.872;4.386;2022-07-30T13:42:00;3.33;;;1.50;;
14472;SDS011;7322;50.872;4.386;2022-07-30T13:44:27;7.28;;;2.15;;
14472;SDS011;7322;50.872;4.386;2022-07-30T13:46:55;4.35;;;1.83;;
14472;SDS011;7322;50.872;4.386;2022-07-30T13:49:22;4.80;;;1.70;;
14472;SDS011;7322;50.872;4.386;2022-07-30T13:51:49;3.58;;;1.63;;
14472;SDS011;7322;50.872;4.386;2022-07-30T13:54:16;2.97;;;1.60;;
14472;SDS011;7322;50.872;4.386;2022-07-30T13:56:43;4.63;;;1.65;;
14472;SDS011;7322;50.872;4.386;2022-07-30T13:59:10;3.55;;;1.65;;
14472;SDS011;7322;50.872;4.386;2022-07-30T14:01:37;4.35;;;1.90;;
14472;SDS011;7322;50.872;4.386;2022-07-30T14:04:05;4.05;;;1.60;;
14472;SDS011;7322;50.872;4.386;2022-07-30T14:06:32;3.17;;;1.50;;
14472;SDS011;7322;50.872;4.386;2022-07-30T14:08:59;5.50;;;1.80;;
14472;SDS011;7322;50.872;4.386;2022-07-30T14:11:28;4.95;;;1.65;;
14472;SDS011;7322;50.872;4.386;2022-07-30T14:13:56;2.65;;;1.70;;
14472;SDS011;7322;50.872;4.386;2022-07-30T14:16:23;6.50;;;2.10;;
14472;SDS011;7322;50.872;4.386;2022-07-30T14:18:50;5.45;;;2.40;;
14472;SDS011;7322;50.872;4.386;2022-07-30T14:21:18;4.65;;;2.08;;
14472;SDS011;7322;50.872;4.386;2022-07-30T14:23:45;7.30;;;2.28;;
14472;SDS011;7322;50.872;4.386;2022-07-30T14:26:12;4.72;;;2.08;;
14472;SDS011;7322;50.872;4.386;2022-07-30T14:28:40;38.85;;;4.07;;
14472;SDS011;7322;50.872;4.386;2022-07-30T14:31:07;6.47;;;2.10;;
14472;SDS011;7322;50.872;4.386;2022-07-30T14:33:34;2.67;;;1.65;;
14472;SDS011;7322;50.872;4.386;2022-07-30T14:36:02;3.80;;;2.03;;
14472;SDS011;7322;50.872;4.386;2022-07-30T14:38:32;4.20;;;1.83;;
14472;SDS011;7322;50.872;4.386;2022-07-30T14:41:00;4.07;;;1.90;;
14472;SDS011;7322;50.872;4.386;2022-07-30T14:43:28;7.10;;;1.70;;
14472;SDS011;7322;50.872;4.386;2022-07-30T14:45:55;5.05;;;1.75;;
14472;SDS011;7322;50.872;4.386;2022-07-30T14:48:29;3.72;;;1.65;;
14472;SDS011;7322;50.872;4.386;2022-07-30T14:54:06;2.80;;;1.42;;
14472;SDS011;7322;50.872;4.386;2022-07-30T14:56:35;4.28;;;2.30;;
14472;SDS011;7322;50.872;4.386;2022-07-30T14:59:02;3.03;;;1.60;;
14472;SDS011;7322;50.872;4.386;2022-07-30T15:01:30;3.95;;;1.73;;
14472;SDS011;7322;50.872;4.386;2022-07-30T15:04:10;4.72;;;1.45;;
14472;SDS011;7322;50.872;4.386;2022-07-30T15:06:39;7.47;;;1.92;;
14472;SDS011;7322;50.872;4.386;2022-07-30T15:09:08;5.07;;;2.10;;
14472;SDS011;7322;50.872;4.386;2022-07-30T15:11:35;2.47;;;1.60;;
14472;SDS011;7322;50.872;4.386;2022-07-30T15:14:04;2.72;;;1.70;;
14472;SDS011;7322;50.872;4.386;2022-07-30T15:16:32;4.03;;;1.60;;
14472;SDS011;7322;50.872;4.386;2022-07-30T15:18:59;3.33;;;1.60;;
14472;SDS011;7322;50.872;4.386;2022-07-30T15:21:26;4.15;;;2.08;;
14472;SDS011;7322;50.872;4.386;2022-07-30T15:26:56;3.88;;;1.70;;
14472;SDS011;7322;50.872;4.386;2022-07-30T15:32:30;4.20;;;2.20;;
14472;SDS011;7322;50.872;4.386;2022-07-30T15:35:14;5.75;;;1.83;;
14472;SDS011;7322;50.872;4.386;2022-07-30T15:37:48;2.15;;;1.40;;
14472;SDS011;7322;50.872;4.386;2022-07-30T15:48:41;3.60;;;1.85;;
14472;SDS011;7322;50.872;4.386;2022-07-30T15:51:09;2.85;;;1.60;;
14472;SDS011;7322;50.872;4.386;2022-07-30T15:53:43;2.10;;;1.63;;
14472;SDS011;7322;50.872;4.386;2022-07-30T15:56:18;3.50;;;1.70;;
14472;SDS011;7322;50.872;4.386;2022-07-30T15:58:47;3.97;;;1.80;;
14472;SDS011;7322;50.872;4.386;2022-07-30T16:01:14;3.35;;;1.83;;
14472;SDS011;7322;50.872;4.386;2022-07-30T16:03:54;6.28;;;2.13;;
14472;SDS011;7322;50.872;4.386;2022-07-30T16:06:25;4.32;;;2.30;;
14472;SDS011;7322;50.872;4.386;2022-07-30T16:09:02;6.18;;;2.22;;
14472;SDS011;7322;50.872;4.386;2022-07-30T16:11:37;3.42;;;1.70;;
14472;SDS011;7322;50.872;4.386;2022-07-30T16:14:07;3.55;;;1.60;;